createdAt,value
2022-11-29T00:01:38.812Z,52.86
2022-11-29T00:04:12.053Z,52.89
2022-11-29T00:06:41.738Z,52.90
2022-11-29T00:09:13.950Z,52.90
2022-11-29T00:12:00.481Z,52.87
2022-11-29T00:14:29.614Z,52.83
2022-11-29T00:17:02.633Z,52.84
2022-11-29T00:19:33.196Z,52.76
2022-11-29T00:22:04.030Z,52.81
2022-11-29T00:24:33.360Z,52.87
2022-11-29T00:27:02.471Z,52.80
2022-11-29T00:29:31.684Z,52.77
2022-11-29T00:32:03.528Z,52.76
2022-11-29T00:34:31.885Z,52.70
2022-11-29T00:37:04.727Z,52.72
2022-11-29T00:39:32.840Z,52.77
2022-11-29T00:42:01.547Z,52.79
2022-11-29T00:44:30.555Z,52.74
2022-11-29T00:46:58.675Z,52.79
2022-11-29T00:49:27.191Z,52.75
2022-11-29T00:51:56.197Z,52.73
2022-11-29T00:54:25.862Z,52.77
2022-11-29T00:56:54.814Z,52.77
2022-11-29T00:59:25.373Z,52.76
2022-11-29T01:01:55.125Z,52.72
2022-11-29T01:04:26.990Z,52.68
2022-11-29T01:06:55.388Z,52.72
2022-11-29T01:09:25.474Z,52.74
2022-11-29T01:11:54.027Z,52.69
2022-11-29T01:14:22.413Z,52.69
2022-11-29T01:16:51.013Z,52.64
2022-11-29T01:19:19.614Z,52.72
2022-11-29T01:21:47.884Z,52.67
2022-11-29T01:24:16.386Z,52.70
2022-11-29T01:26:46.139Z,52.67
2022-11-29T01:29:15.609Z,52.70
2022-11-29T01:31:43.934Z,52.72
2022-11-29T01:34:12.213Z,52.71
2022-11-29T01:36:40.896Z,52.59
2022-11-29T01:39:09.698Z,52.68
2022-11-29T01:41:39.293Z,52.64
2022-11-29T01:44:47.949Z,52.67
2022-11-29T01:47:19.587Z,52.64
2022-11-29T01:49:51.675Z,52.69
2022-11-29T01:52:24.216Z,52.67
2022-11-29T01:54:56.690Z,52.71
2022-11-29T01:57:26.073Z,52.67
2022-11-29T02:00:00.592Z,52.68
2022-11-29T02:02:33.567Z,52.64
2022-11-29T02:05:03.693Z,52.67
2022-11-29T02:07:36.506Z,52.66
2022-11-29T02:10:06.563Z,52.71
2022-11-29T02:12:47.683Z,52.72
2022-11-29T02:15:30.173Z,52.66
2022-11-29T02:18:12.271Z,52.70
2022-11-29T02:21:11.997Z,52.63
2022-11-29T02:24:14.703Z,52.68
2022-11-29T02:27:15.589Z,52.73
2022-11-29T02:30:18.572Z,52.66
2022-11-29T02:33:28.131Z,52.71
2022-11-29T02:36:24.870Z,52.66
2022-11-29T02:39:16.111Z,52.69
2022-11-29T02:42:10.055Z,52.70
2022-11-29T02:45:04.863Z,52.69
2022-11-29T02:47:45.732Z,52.69
2022-11-29T02:50:20.577Z,52.70
2022-11-29T02:53:01.997Z,52.74
2022-11-29T02:55:37.272Z,52.69
2022-11-29T02:58:14.946Z,52.66
2022-11-29T03:00:56.943Z,52.57
2022-11-29T03:03:28.808Z,52.58
2022-11-29T03:06:04.322Z,52.68
2022-11-29T03:08:42.389Z,52.65
2022-11-29T03:11:19.375Z,52.67
2022-11-29T03:13:56.975Z,52.65
2022-11-29T03:16:41.282Z,52.64
2022-11-29T03:19:41.128Z,52.61
2022-11-29T03:22:16.218Z,52.66
2022-11-29T03:25:00.308Z,52.57
2022-11-29T03:27:37.592Z,52.61
2022-11-29T03:30:12.285Z,52.67
2022-11-29T03:32:47.646Z,52.61
2022-11-29T03:35:21.447Z,52.65
2022-11-29T03:37:58.481Z,52.63
2022-11-29T03:40:33.155Z,52.67
2022-11-29T03:43:07.090Z,52.55
2022-11-29T03:45:43.806Z,52.65
2022-11-29T03:48:17.948Z,52.67
2022-11-29T03:50:55.083Z,52.57
2022-11-29T03:53:30.332Z,52.56
2022-11-29T03:56:03.730Z,52.64
2022-11-29T03:58:40.984Z,52.57
2022-11-29T04:01:38.103Z,52.57
2022-11-29T04:04:42.932Z,52.53
2022-11-29T04:07:32.468Z,52.53
2022-11-29T04:10:16.698Z,52.49
2022-11-29T04:13:21.666Z,52.50
2022-11-29T04:16:10.475Z,52.50
2022-11-29T04:19:16.414Z,52.44
2022-11-29T04:22:00.192Z,52.36
2022-11-29T04:24:57.300Z,52.42
2022-11-29T04:27:42.770Z,52.42
2022-11-29T04:30:22.037Z,52.37
2022-11-29T04:33:33.739Z,52.38
2022-11-29T04:36:20.785Z,52.32
2022-11-29T04:39:08.219Z,52.27
2022-11-29T04:41:56.005Z,52.30
2022-11-29T04:44:51.138Z,52.29
2022-11-29T04:47:41.453Z,52.27
2022-11-29T04:50:31.285Z,52.22
2022-11-29T04:53:27.496Z,52.26
2022-11-29T04:56:16.429Z,52.21
2022-11-29T04:58:55.639Z,52.22
2022-11-29T05:01:29.968Z,52.28
2022-11-29T05:04:19.726Z,52.52
2022-11-29T05:07:02.958Z,52.62
2022-11-29T05:09:43.693Z,52.65
2022-11-29T05:12:20.453Z,52.93
2022-11-29T05:15:06.554Z,52.92
2022-11-29T05:17:43.215Z,52.87
2022-11-29T05:20:25.674Z,52.93
2022-11-29T05:23:08.674Z,52.88
2022-11-29T05:25:43.978Z,52.96
2022-11-29T05:28:20.431Z,52.87
2022-11-29T05:31:07.774Z,52.90
2022-11-29T05:33:54.072Z,53.05
2022-11-29T05:36:34.486Z,52.94
2022-11-29T05:39:16.525Z,52.94
2022-11-29T05:42:02.620Z,52.92
2022-11-29T05:44:35.542Z,53.00
2022-11-29T05:47:10.120Z,52.92
2022-11-29T05:49:45.697Z,52.91
2022-11-29T05:52:26.934Z,53.33
2022-11-29T05:55:11.499Z,53.56
2022-11-29T05:57:47.622Z,53.28
2022-11-29T06:00:19.040Z,53.12
2022-11-29T06:02:55.537Z,53.05
2022-11-29T06:05:33.249Z,53.04
2022-11-29T06:08:07.910Z,53.00
2022-11-29T06:10:41.739Z,53.12
2022-11-29T06:13:23.961Z,53.39
2022-11-29T06:16:14.495Z,53.33
2022-11-29T06:19:22.352Z,53.48
2022-11-29T06:22:01.448Z,54.25
2022-11-29T06:25:05.518Z,54.13
2022-11-29T06:27:48.473Z,53.84
2022-11-29T06:30:21.474Z,54.64
2022-11-29T06:32:54.410Z,54.67
2022-11-29T06:35:40.844Z,54.09
2022-11-29T06:38:18.179Z,51.72
2022-11-29T06:43:41.519Z,52.11
2022-11-29T06:46:18.710Z,52.68
2022-11-29T06:48:55.500Z,53.01
2022-11-29T06:51:32.798Z,53.08
2022-11-29T06:54:10.945Z,53.12
2022-11-29T06:56:45.499Z,53.40
2022-11-29T06:59:30.848Z,53.56
2022-11-29T07:02:05.796Z,53.00
2022-11-29T07:04:57.793Z,53.25
2022-11-29T07:07:26.547Z,53.38
2022-11-29T07:09:59.721Z,53.30
2022-11-29T07:12:28.431Z,53.44
2022-11-29T07:14:58.858Z,53.23
2022-11-29T07:17:35.473Z,53.63
2022-11-29T07:20:10.679Z,53.56
2022-11-29T07:22:56.221Z,53.40
2022-11-29T07:25:37.030Z,53.57
2022-11-29T07:28:15.838Z,53.30
2022-11-29T07:30:54.492Z,53.65
2022-11-29T07:33:31.825Z,53.31
2022-11-29T07:36:07.040Z,53.40
2022-11-29T07:38:48.319Z,53.37
2022-11-29T07:41:24.892Z,53.37
2022-11-29T07:44:01.483Z,53.54
2022-11-29T07:46:30.944Z,53.43
2022-11-29T07:48:59.247Z,53.39
2022-11-29T07:51:27.430Z,53.58
2022-11-29T07:53:55.555Z,53.73
2022-11-29T07:56:23.546Z,53.55
2022-11-29T07:58:51.886Z,53.57
2022-11-29T08:01:20.289Z,53.47
2022-11-29T08:03:49.679Z,53.48
2022-11-29T08:06:25.464Z,53.23
2022-11-29T08:08:53.853Z,53.52
2022-11-29T08:11:22.160Z,53.55
2022-11-29T08:13:50.263Z,53.33
2022-11-29T08:16:20.827Z,53.13
2022-11-29T08:18:50.932Z,53.25
2022-11-29T08:21:19.321Z,53.19
2022-11-29T08:23:49.611Z,53.14
2022-11-29T08:26:20.210Z,53.31
2022-11-29T08:28:52.822Z,53.16
2022-11-29T08:31:22.091Z,53.07
2022-11-29T08:33:51.521Z,53.17
2022-11-29T08:36:21.328Z,53.08
2022-11-29T08:38:57.192Z,53.52
2022-11-29T08:41:30.273Z,53.08
2022-11-29T08:43:58.756Z,53.28
2022-11-29T08:46:46.839Z,52.87
2022-11-29T08:49:16.779Z,52.88
2022-11-29T08:51:44.883Z,52.97
2022-11-29T08:54:12.055Z,52.92
2022-11-29T08:59:28.747Z,53.02
2022-11-29T09:01:57.273Z,53.05
2022-11-29T09:04:26.699Z,53.11
2022-11-29T09:06:54.684Z,53.23
2022-11-29T09:09:23.204Z,53.05
2022-11-29T09:11:54.126Z,53.14
2022-11-29T09:14:22.890Z,53.28
2022-11-29T09:16:51.067Z,53.15
2022-11-29T09:19:19.719Z,53.09
2022-11-29T09:21:49.183Z,52.89
2022-11-29T09:24:18.842Z,52.95
2022-11-29T09:26:48.440Z,53.04
2022-11-29T09:29:17.722Z,53.07
2022-11-29T09:31:46.011Z,52.98
2022-11-29T09:34:14.526Z,53.02
2022-11-29T09:36:45.087Z,52.82
2022-11-29T09:39:14.973Z,53.20
2022-11-29T09:42:13.171Z,52.87
2022-11-29T09:44:52.449Z,52.96
2022-11-29T09:47:32.932Z,52.91
2022-11-29T09:50:15.910Z,52.88
2022-11-29T09:52:53.078Z,52.93
2022-11-29T09:55:39.543Z,52.83
2022-11-29T09:58:12.724Z,52.75
2022-11-29T10:00:48.575Z,52.80
2022-11-29T10:03:25.371Z,53.00
2022-11-29T10:06:01.674Z,52.91
2022-11-29T10:08:35.655Z,52.87
2022-11-29T10:11:17.502Z,52.83
2022-11-29T10:13:50.358Z,52.66
2022-11-29T10:16:23.542Z,52.81
2022-11-29T10:19:01.140Z,52.76
2022-11-29T10:21:33.693Z,52.79
2022-11-29T10:24:06.016Z,52.67
2022-11-29T10:26:36.047Z,52.67
2022-11-29T10:29:04.174Z,52.85
2022-11-29T10:31:36.050Z,52.83
2022-11-29T10:34:13.202Z,52.85
2022-11-29T10:36:44.349Z,52.72
2022-11-29T10:39:18.538Z,52.85
2022-11-29T10:41:50.835Z,52.86
2022-11-29T10:44:19.125Z,52.87
2022-11-29T10:46:48.603Z,52.91
2022-11-29T10:49:19.087Z,52.74
2022-11-29T10:51:48.098Z,52.70
2022-11-29T10:54:31.218Z,52.81
2022-11-29T10:57:02.476Z,52.90
2022-11-29T10:59:36.787Z,52.77
2022-11-29T11:02:06.674Z,52.83
2022-11-29T11:04:37.607Z,52.69
2022-11-29T11:07:07.437Z,52.96
2022-11-29T11:09:37.495Z,52.70
2022-11-29T11:12:12.975Z,52.77
2022-11-29T11:14:41.320Z,52.83
2022-11-29T11:17:17.917Z,52.79
2022-11-29T11:19:56.527Z,52.87
2022-11-29T11:22:26.926Z,52.83
2022-11-29T11:25:00.735Z,52.80
2022-11-29T11:27:37.870Z,52.78
2022-11-29T11:30:19.203Z,52.64
2022-11-29T11:33:10.759Z,52.72
2022-11-29T11:35:38.813Z,52.72
2022-11-29T11:38:16.211Z,52.90
2022-11-29T11:40:44.772Z,52.81
2022-11-29T11:43:22.525Z,52.73
2022-11-29T11:45:54.148Z,52.82
2022-11-29T11:48:27.873Z,52.80
2022-11-29T11:50:59.792Z,52.80
2022-11-29T11:53:30.550Z,52.67
2022-11-29T11:56:01.572Z,52.80
2022-11-29T11:58:33.678Z,52.97
2022-11-29T12:01:15.888Z,52.75
2022-11-29T12:03:54.514Z,52.76
2022-11-29T12:06:36.097Z,52.74
2022-11-29T12:09:11.982Z,52.80
2022-11-29T12:11:47.165Z,52.83
2022-11-29T12:14:26.499Z,52.85
2022-11-29T12:17:04.990Z,52.90
2022-11-29T12:19:42.387Z,52.80
2022-11-29T12:22:20.490Z,52.80
2022-11-29T12:24:56.232Z,52.75
2022-11-29T12:27:24.264Z,52.97
2022-11-29T12:29:54.027Z,52.92
2022-11-29T12:32:47.425Z,52.74
2022-11-29T12:35:36.023Z,52.84
2022-11-29T12:38:14.299Z,52.85
2022-11-29T12:40:55.262Z,52.94
2022-11-29T12:43:35.804Z,52.96
2022-11-29T12:46:13.536Z,52.82
2022-11-29T12:48:51.016Z,52.72
2022-11-29T12:51:27.408Z,52.85
2022-11-29T12:54:12.587Z,52.83
2022-11-29T12:56:51.104Z,52.86
2022-11-29T12:59:33.043Z,52.85
2022-11-29T13:02:21.179Z,52.79
2022-11-29T13:05:00.398Z,52.92
2022-11-29T13:07:39.073Z,52.84
2022-11-29T13:10:38.931Z,52.87
2022-11-29T13:13:20.627Z,52.99
2022-11-29T13:15:56.033Z,52.87
2022-11-29T13:18:35.422Z,52.91
2022-11-29T13:21:11.684Z,52.83
2022-11-29T13:26:41.173Z,52.73
2022-11-29T13:29:15.687Z,52.93
2022-11-29T13:31:45.120Z,52.85
2022-11-29T13:34:20.150Z,52.64
2022-11-29T13:37:02.352Z,52.81
2022-11-29T13:39:45.279Z,52.77
2022-11-29T13:42:20.942Z,52.90
2022-11-29T13:44:58.989Z,52.66
2022-11-29T13:47:29.849Z,52.89
2022-11-29T13:50:02.618Z,52.78
2022-11-29T13:52:42.177Z,52.73
2022-11-29T13:55:31.714Z,52.70
2022-11-29T13:58:16.686Z,52.73
2022-11-29T14:00:51.749Z,52.79
2022-11-29T14:03:41.386Z,52.81
2022-11-29T14:06:14.134Z,52.82
2022-11-29T14:09:17.061Z,52.74
2022-11-29T14:11:44.322Z,52.66
2022-11-29T14:14:24.130Z,52.81
2022-11-29T14:16:56.667Z,52.80
2022-11-29T14:19:33.106Z,52.81
2022-11-29T14:22:33.615Z,52.65
2022-11-29T14:28:34.115Z,52.74
2022-11-29T14:31:04.989Z,52.65
2022-11-29T14:33:41.888Z,52.83
2022-11-29T14:36:34.986Z,52.76
2022-11-29T14:39:21.503Z,52.66
2022-11-29T14:41:57.032Z,52.69
2022-11-29T14:44:28.201Z,52.57
2022-11-29T14:47:07.792Z,52.37
2022-11-29T14:49:42.601Z,52.57
2022-11-29T14:52:20.138Z,52.33
2022-11-29T14:55:01.465Z,52.40
2022-11-29T14:57:56.044Z,52.18
2022-11-29T15:00:27.147Z,52.05
2022-11-29T15:03:00.219Z,52.05
2022-11-29T15:05:34.458Z,52.16
2022-11-29T15:08:10.648Z,51.94
2022-11-29T15:10:42.335Z,52.22
2022-11-29T15:13:14.700Z,52.27
2022-11-29T15:16:03.011Z,52.43
2022-11-29T15:18:55.198Z,52.56
2022-11-29T15:21:36.359Z,52.23
2022-11-29T15:24:12.119Z,52.11
2022-11-29T15:26:55.980Z,52.06
2022-11-29T15:29:24.531Z,52.10
2022-11-29T15:31:55.282Z,52.01
2022-11-29T15:34:31.676Z,52.01
2022-11-29T15:37:00.731Z,52.21
2022-11-29T15:39:32.061Z,51.95
2022-11-29T15:42:11.066Z,52.00
2022-11-29T15:44:45.732Z,52.21
2022-11-29T15:47:22.485Z,49.30
2022-11-29T15:49:50.604Z,50.34
2022-11-29T15:52:26.755Z,50.60
2022-11-29T15:54:57.801Z,50.36
2022-11-29T15:57:31.799Z,50.65
2022-11-29T16:00:03.231Z,50.74
2022-11-29T16:02:34.826Z,51.51
2022-11-29T16:05:09.606Z,51.00
2022-11-29T16:07:40.508Z,50.64
2022-11-29T16:10:15.713Z,50.65
2022-11-29T16:12:54.484Z,51.21
2022-11-29T16:15:28.856Z,50.74
2022-11-29T16:18:04.299Z,50.79
2022-11-29T16:20:32.889Z,51.03
2022-11-29T16:23:12.702Z,50.78
2022-11-29T16:25:59.743Z,51.08
2022-11-29T16:28:37.591Z,51.26
2022-11-29T16:31:06.073Z,51.10
2022-11-29T16:33:34.289Z,51.41
2022-11-29T16:36:07.881Z,50.36
2022-11-29T16:38:36.738Z,50.75
2022-11-29T16:42:30.785Z,51.00
2022-11-29T16:45:31.351Z,50.87
2022-11-29T16:47:59.863Z,50.82
2022-11-29T16:50:32.822Z,49.34
2022-11-29T16:53:34.994Z,47.93
2022-11-29T16:56:06.079Z,50.21
2022-11-29T16:58:38.760Z,48.39
2022-11-29T17:01:19.061Z,48.00
2022-11-29T17:03:47.350Z,47.28
2022-11-29T17:06:16.278Z,46.81
2022-11-29T17:08:44.638Z,47.70
2022-11-29T17:11:15.029Z,48.80
2022-11-29T17:13:43.178Z,48.84
2022-11-29T17:16:14.612Z,49.56
2022-11-29T17:18:45.246Z,49.08
2022-11-29T17:21:18.925Z,49.20
2022-11-29T17:23:47.252Z,49.47
2022-11-29T17:26:15.994Z,49.63
2022-11-29T17:28:45.364Z,49.63
2022-11-29T17:31:14.709Z,49.86
2022-11-29T17:33:44.649Z,49.99
2022-11-29T17:36:16.677Z,49.79
2022-11-29T17:39:01.703Z,50.19
2022-11-29T17:41:55.510Z,50.00
2022-11-29T17:44:23.832Z,50.25
2022-11-29T17:46:51.957Z,50.36
2022-11-29T17:49:22.223Z,50.38
2022-11-29T17:51:52.377Z,50.45
2022-11-29T17:54:21.341Z,50.35
2022-11-29T17:56:49.743Z,50.32
2022-11-29T17:59:17.992Z,50.47
2022-11-29T18:01:47.379Z,50.64
2022-11-29T18:04:15.934Z,50.63
2022-11-29T18:06:49.860Z,51.02
2022-11-29T18:09:19.948Z,51.06
2022-11-29T18:11:50.190Z,50.74
2022-11-29T18:14:24.329Z,50.80
2022-11-29T18:16:53.217Z,51.09
2022-11-29T18:19:23.455Z,51.04
2022-11-29T18:21:53.317Z,50.74
2022-11-29T18:24:21.308Z,51.48
2022-11-29T18:26:49.590Z,51.29
2022-11-29T18:29:18.142Z,51.05
2022-11-29T18:31:47.650Z,51.25
2022-11-29T18:34:16.579Z,51.62
2022-11-29T18:36:47.105Z,51.55
2022-11-29T18:39:24.253Z,51.20
2022-11-29T18:41:52.472Z,51.25
2022-11-29T18:44:24.281Z,51.28
2022-11-29T18:46:52.406Z,51.46
2022-11-29T18:49:20.720Z,51.66
2022-11-29T18:51:50.193Z,51.51
2022-11-29T18:54:20.621Z,51.24
2022-11-29T18:56:54.105Z,51.49
2022-11-29T18:59:23.242Z,51.78
2022-11-29T19:01:51.938Z,51.60
2022-11-29T19:04:21.628Z,51.60
2022-11-29T19:06:50.007Z,51.64
2022-11-29T19:09:21.546Z,51.74
2022-11-29T19:11:50.153Z,51.78
2022-11-29T19:14:18.697Z,51.95
2022-11-29T19:16:48.236Z,51.79
2022-11-29T19:19:19.195Z,51.78
2022-11-29T19:21:48.246Z,51.80
2022-11-29T19:24:18.111Z,51.88
2022-11-29T19:26:49.475Z,51.79
2022-11-29T19:29:18.440Z,51.73
2022-11-29T19:31:46.554Z,51.71
2022-11-29T19:34:15.074Z,51.88
2022-11-29T19:36:44.655Z,51.65
2022-11-29T19:39:14.214Z,51.77
2022-11-29T19:41:45.272Z,52.33
2022-11-29T19:44:15.276Z,52.33
2022-11-29T19:46:45.733Z,52.00
2022-11-29T19:49:14.295Z,52.38
2022-11-29T19:51:42.670Z,52.38
2022-11-29T19:54:12.029Z,52.46
2022-11-29T19:56:40.960Z,52.42
2022-11-29T19:59:09.853Z,52.37
2022-11-29T20:01:42.259Z,52.40
2022-11-29T20:04:12.716Z,52.15
2022-11-29T20:06:44.334Z,52.51
2022-11-29T20:09:14.819Z,52.54
2022-11-29T20:11:43.065Z,52.44
2022-11-29T20:14:15.519Z,52.47
2022-11-29T20:16:45.993Z,52.74
2022-11-29T20:19:17.252Z,52.68
2022-11-29T20:21:47.773Z,52.49
2022-11-29T20:24:17.451Z,52.58
2022-11-29T20:26:48.128Z,52.61
2022-11-29T20:29:17.137Z,52.41
2022-11-29T20:31:50.679Z,52.43
2022-11-29T20:34:20.924Z,52.43
2022-11-29T20:37:30.267Z,52.42
2022-11-29T20:40:01.325Z,52.33
2022-11-29T20:43:08.543Z,52.45
2022-11-29T20:45:38.203Z,52.69
2022-11-29T20:48:16.425Z,52.62
2022-11-29T20:50:48.453Z,52.63
2022-11-29T20:53:31.023Z,52.63
2022-11-29T20:55:59.342Z,52.22
2022-11-29T20:58:27.674Z,52.36
2022-11-29T21:00:56.778Z,52.55
2022-11-29T21:03:28.915Z,52.35
2022-11-29T21:05:58.168Z,52.27
2022-11-29T21:08:27.638Z,52.67
2022-11-29T21:10:55.988Z,52.68
2022-11-29T21:13:24.722Z,52.68
2022-11-29T21:15:53.647Z,52.70
2022-11-29T21:18:24.314Z,52.14
2022-11-29T21:21:13.103Z,52.54
2022-11-29T21:23:53.149Z,52.92
2022-11-29T21:26:25.559Z,52.85
2022-11-29T21:29:01.573Z,52.66
2022-11-29T21:31:30.267Z,52.67
2022-11-29T21:33:58.938Z,52.65
2022-11-29T21:36:28.890Z,52.87
2022-11-29T21:39:00.940Z,52.94
2022-11-29T21:41:33.531Z,53.01
2022-11-29T21:44:08.986Z,53.06
2022-11-29T21:46:37.598Z,53.17
2022-11-29T21:49:06.139Z,52.89
2022-11-29T21:51:35.550Z,52.71
2022-11-29T21:54:04.178Z,52.66
2022-11-29T21:56:32.384Z,52.71
2022-11-29T21:59:00.459Z,52.78
2022-11-29T22:01:29.577Z,52.93
2022-11-29T22:03:57.937Z,52.78
2022-11-29T22:06:26.393Z,52.53
2022-11-29T22:08:56.079Z,52.95
2022-11-29T22:11:31.805Z,52.81
2022-11-29T22:14:17.126Z,52.68
2022-11-29T22:16:47.374Z,52.87
2022-11-29T22:19:17.343Z,52.88
2022-11-29T22:21:48.294Z,52.65
2022-11-29T22:24:19.949Z,52.66
2022-11-29T22:26:48.310Z,52.61
2022-11-29T22:29:17.247Z,52.76
2022-11-29T22:31:46.905Z,52.70
2022-11-29T22:34:15.757Z,52.50
2022-11-29T22:36:44.311Z,52.60
2022-11-29T22:39:12.803Z,52.60
2022-11-29T22:41:43.015Z,52.46
2022-11-29T22:44:11.495Z,52.97
2022-11-29T22:46:41.345Z,52.63
2022-11-29T22:49:09.731Z,52.72
2022-11-29T22:51:39.581Z,52.70
2022-11-29T22:54:09.323Z,52.79
2022-11-29T22:56:40.519Z,52.89
2022-11-29T22:59:10.326Z,52.74
2022-11-29T23:01:40.625Z,52.87
2022-11-29T23:04:10.757Z,52.94
2022-11-29T23:06:41.257Z,52.79
2022-11-29T23:09:15.604Z,53.00
2022-11-29T23:11:44.379Z,52.89
2022-11-29T23:14:14.210Z,52.81
2022-11-29T23:16:42.699Z,53.01
2022-11-29T23:19:10.891Z,52.96
2022-11-29T23:21:44.801Z,52.92
2022-11-29T23:24:13.343Z,52.91
2022-11-29T23:26:46.063Z,52.99
2022-11-29T23:29:18.319Z,53.07
2022-11-29T23:31:47.701Z,52.99
2022-11-29T23:34:15.899Z,52.86
2022-11-29T23:36:47.012Z,53.10
2022-11-29T23:39:19.602Z,52.69
2022-11-29T23:41:47.855Z,52.77
2022-11-29T23:44:17.307Z,52.72
2022-11-29T23:46:45.477Z,52.68
2022-11-29T23:49:13.893Z,52.38
2022-11-29T23:51:41.951Z,52.45
2022-11-29T23:54:10.514Z,52.58
2022-11-29T23:56:38.793Z,52.20
2022-11-29T23:59:07.319Z,52.36
